sensor_id;sensor_type;location;lat;lon;timestamp;pressure;altitude;pressure_sealevel;temperature;humidity
23170;BME280;11753;43.144;24.714;2023-04-03T00:00:50;98982.34;;;8.92;78.97
23170;BME280;11753;43.144;24.714;2023-04-03T00:01:50;98979.59;;;8.93;78.94
23170;BME280;11753;43.144;24.714;2023-04-03T00:02:52;98982.69;;;8.89;79.34
23170;BME280;11753;43.144;24.714;2023-04-03T00:03:52;98973.81;;;8.90;79.11
23170;BME280;11753;43.144;24.714;2023-04-03T00:04:53;98973.81;;;8.90;79.02
23170;BME280;11753;43.144;24.714;2023-04-03T00:05:54;98973.00;;;8.89;79.11
23170;BME280;11753;43.144;24.714;2023-04-03T00:06:54;98984.28;;;8.81;79.74
23170;BME280;11753;43.144;24.714;2023-04-03T00:07:55;98985.78;;;8.84;79.59
23170;BME280;11753;43.144;24.714;2023-04-03T00:08:56;98991.84;;;8.85;79.74
23170;BME280;11753;43.144;24.714;2023-04-03T00:09:57;98985.31;;;8.89;79.72
23170;BME280;11753;43.144;24.714;2023-04-03T00:10:58;98984.94;;;8.83;79.61
23170;BME280;11753;43.144;24.714;2023-04-03T00:11:59;98982.69;;;8.89;79.51
23170;BME280;11753;43.144;24.714;2023-04-03T00:13:00;98988.94;;;8.96;79.50
23170;BME280;11753;43.144;24.714;2023-04-03T00:14:01;98981.25;;;8.94;79.35
23170;BME280;11753;43.144;24.714;2023-04-03T00:15:03;98983.69;;;8.96;79.18
23170;BME280;11753;43.144;24.714;2023-04-03T00:16:04;98983.19;;;8.92;79.48
23170;BME280;11753;43.144;24.714;2023-04-03T00:17:05;98985.97;;;8.91;79.28
23170;BME280;11753;43.144;24.714;2023-04-03T00:18:07;98980.72;;;8.91;79.38
23170;BME280;11753;43.144;24.714;2023-04-03T00:19:08;98984.31;;;8.90;79.54
23170;BME280;11753;43.144;24.714;2023-04-03T00:20:08;98980.41;;;8.94;79.36
23170;BME280;11753;43.144;24.714;2023-04-03T00:21:12;98972.88;;;8.99;78.85
23170;BME280;11753;43.144;24.714;2023-04-03T00:22:13;98976.97;;;8.93;78.95
23170;BME280;11753;43.144;24.714;2023-04-03T00:23:15;98978.28;;;8.97;78.87
23170;BME280;11753;43.144;24.714;2023-04-03T00:24:16;98981.88;;;8.88;79.33
23170;BME280;11753;43.144;24.714;2023-04-03T00:25:17;98976.28;;;8.91;79.12
23170;BME280;11753;43.144;24.714;2023-04-03T00:26:18;98975.31;;;8.92;78.97
23170;BME280;11753;43.144;24.714;2023-04-03T00:27:19;98974.66;;;8.90;79.28
23170;BME280;11753;43.144;24.714;2023-04-03T00:28:20;98971.19;;;8.90;79.20
23170;BME280;11753;43.144;24.714;2023-04-03T00:29:21;98973.50;;;8.93;79.21
23170;BME280;11753;43.144;24.714;2023-04-03T00:30:24;98970.50;;;8.79;79.58
23170;BME280;11753;43.144;24.714;2023-04-03T00:31:25;98957.88;;;8.83;79.38
23170;BME280;11753;43.144;24.714;2023-04-03T00:32:26;98959.84;;;8.81;79.66
23170;BME280;11753;43.144;24.714;2023-04-03T00:33:27;98965.59;;;8.85;79.55
23170;BME280;11753;43.144;24.714;2023-04-03T00:34:28;98962.47;;;8.81;79.31
23170;BME280;11753;43.144;24.714;2023-04-03T00:35:29;98960.31;;;8.76;79.77
23170;BME280;11753;43.144;24.714;2023-04-03T00:36:29;98964.59;;;8.77;79.63
23170;BME280;11753;43.144;24.714;2023-04-03T00:37:30;98969.53;;;8.80;79.59
23170;BME280;11753;43.144;24.714;2023-04-03T00:38:31;98955.44;;;8.81;79.60
23170;BME280;11753;43.144;24.714;2023-04-03T00:39:32;98963.97;;;8.83;79.67
23170;BME280;11753;43.144;24.714;2023-04-03T00:40:38;98957.06;;;8.82;79.48
23170;BME280;11753;43.144;24.714;2023-04-03T00:41:40;98966.59;;;8.83;79.61
23170;BME280;11753;43.144;24.714;2023-04-03T00:42:42;98964.13;;;8.82;79.68
23170;BME280;11753;43.144;24.714;2023-04-03T00:43:43;98960.34;;;8.85;79.20
23170;BME280;11753;43.144;24.714;2023-04-03T00:45:56;98960.69;;;8.81;79.47
23170;BME280;11753;43.144;24.714;2023-04-03T00:46:57;98959.34;;;8.77;79.60
23170;BME280;11753;43.144;24.714;2023-04-03T00:47:59;98958.72;;;8.83;79.53
23170;BME280;11753;43.144;24.714;2023-04-03T00:49:01;98953.09;;;8.78;79.58
23170;BME280;11753;43.144;24.714;2023-04-03T00:50:03;98963.47;;;8.80;79.73
23170;BME280;11753;43.144;24.714;2023-04-03T00:51:06;98960.53;;;8.91;78.99
23170;BME280;11753;43.144;24.714;2023-04-03T00:52:11;98957.88;;;8.83;79.02
23170;BME280;11753;43.144;24.714;2023-04-03T00:53:18;98962.66;;;8.79;79.48
23170;BME280;11753;43.144;24.714;2023-04-03T00:54:20;98963.28;;;8.73;79.70
23170;BME280;11753;43.144;24.714;2023-04-03T00:55:21;98960.97;;;8.78;79.77
23170;BME280;11753;43.144;24.714;2023-04-03T00:56:25;98961.31;;;8.75;79.87
23170;BME280;11753;43.144;24.714;2023-04-03T00:57:27;98959.66;;;8.74;79.88
23170;BME280;11753;43.144;24.714;2023-04-03T00:58:37;98963.94;;;8.75;80.04
23170;BME280;11753;43.144;24.714;2023-04-03T00:59:44;98971.13;;;8.73;79.97
23170;BME280;11753;43.144;24.714;2023-04-03T01:00:52;98965.72;;;8.75;79.92
23170;BME280;11753;43.144;24.714;2023-04-03T01:01:57;98968.81;;;8.70;79.76
23170;BME280;11753;43.144;24.714;2023-04-03T01:02:59;98971.09;;;8.65;79.81
23170;BME280;11753;43.144;24.714;2023-04-03T01:04:01;98974.00;;;8.54;80.47
23170;BME280;11753;43.144;24.714;2023-04-03T01:05:04;98965.25;;;8.45;81.12
23170;BME280;11753;43.144;24.714;2023-04-03T01:06:05;98984.28;;;8.47;80.95
23170;BME280;11753;43.144;24.714;2023-04-03T01:07:18;98974.94;;;8.45;81.07
23170;BME280;11753;43.144;24.714;2023-04-03T01:08:20;98980.50;;;8.50;80.92
23170;BME280;11753;43.144;24.714;2023-04-03T01:09:21;98980.50;;;8.50;80.85
23170;BME280;11753;43.144;24.714;2023-04-03T01:10:22;98970.97;;;8.41;81.12
23170;BME280;11753;43.144;24.714;2023-04-03T01:11:23;98970.59;;;8.36;81.36
23170;BME280;11753;43.144;24.714;2023-04-03T01:12:27;98977.03;;;8.41;81.24
23170;BME280;11753;43.144;24.714;2023-04-03T01:13:32;98973.34;;;8.34;81.32
23170;BME280;11753;43.144;24.714;2023-04-03T01:14:33;98967.56;;;8.22;82.11
23170;BME280;11753;43.144;24.714;2023-04-03T01:15:34;98965.75;;;8.23;82.05
23170;BME280;11753;43.144;24.714;2023-04-03T01:16:35;98968.31;;;8.15;82.81
23170;BME280;11753;43.144;24.714;2023-04-03T01:18:43;98966.66;;;8.14;83.00
23170;BME280;11753;43.144;24.714;2023-04-03T01:19:47;98966.34;;;8.17;83.17
23170;BME280;11753;43.144;24.714;2023-04-03T01:22:19;98963.63;;;8.26;82.59
23170;BME280;11753;43.144;24.714;2023-04-03T01:23:30;98967.19;;;8.17;82.71
23170;BME280;11753;43.144;24.714;2023-04-03T01:24:37;98965.22;;;8.19;82.89
23170;BME280;11753;43.144;24.714;2023-04-03T01:25:44;98958.88;;;8.22;82.96
23170;BME280;11753;43.144;24.714;2023-04-03T01:26:45;98968.50;;;8.21;82.72
23170;BME280;11753;43.144;24.714;2023-04-03T01:27:46;98974.72;;;8.20;83.16
23170;BME280;11753;43.144;24.714;2023-04-03T01:28:47;98972.78;;;8.22;83.00
23170;BME280;11753;43.144;24.714;2023-04-03T01:29:48;98973.09;;;8.19;83.10
23170;BME280;11753;43.144;24.714;2023-04-03T01:32:28;98979.63;;;8.15;83.19
23170;BME280;11753;43.144;24.714;2023-04-03T01:33:29;98972.91;;;8.21;82.99
23170;BME280;11753;43.144;24.714;2023-04-03T01:34:30;98972.91;;;8.21;83.09
23170;BME280;11753;43.144;24.714;2023-04-03T01:35:31;98978.31;;;8.19;83.15
23170;BME280;11753;43.144;24.714;2023-04-03T01:36:31;98974.16;;;8.09;83.50
23170;BME280;11753;43.144;24.714;2023-04-03T01:37:32;98973.41;;;8.16;83.37
23170;BME280;11753;43.144;24.714;2023-04-03T01:38:33;98975.81;;;8.10;83.48
23170;BME280;11753;43.144;24.714;2023-04-03T01:39:34;98972.72;;;8.14;83.41
23170;BME280;11753;43.144;24.714;2023-04-03T01:40:35;98972.38;;;8.09;83.48
23170;BME280;11753;43.144;24.714;2023-04-03T01:41:36;98978.13;;;8.13;83.63
23170;BME280;11753;43.144;24.714;2023-04-03T01:42:37;98977.66;;;8.17;83.14
23170;BME280;11753;43.144;24.714;2023-04-03T01:43:38;98975.69;;;8.19;83.22
23170;BME280;11753;43.144;24.714;2023-04-03T01:44:39;98968.50;;;8.21;82.70
23170;BME280;11753;43.144;24.714;2023-04-03T01:45:40;98979.97;;;8.20;82.63
23170;BME280;11753;43.144;24.714;2023-04-03T01:46:41;98975.53;;;8.21;82.66
23170;BME280;11753;43.144;24.714;2023-04-03T01:47:43;98976.69;;;8.18;82.49
23170;BME280;11753;43.144;24.714;2023-04-03T01:48:43;98985.22;;;8.20;82.49
23170;BME280;11753;43.144;24.714;2023-04-03T01:49:44;98979.69;;;8.23;82.42
23170;BME280;11753;43.144;24.714;2023-04-03T01:50:45;98975.41;;;8.22;82.33
23170;BME280;11753;43.144;24.714;2023-04-03T01:51:47;98972.09;;;8.20;82.49
23170;BME280;11753;43.144;24.714;2023-04-03T01:52:48;98973.56;;;8.15;82.52
23170;BME280;11753;43.144;24.714;2023-04-03T01:53:48;98975.59;;;8.03;83.25
23170;BME280;11753;43.144;24.714;2023-04-03T01:54:49;98981.44;;;7.97;83.82
23170;BME280;11753;43.144;24.714;2023-04-03T01:55:51;98976.34;;;7.95;83.94
23170;BME280;11753;43.144;24.714;2023-04-03T01:56:51;98974.34;;;7.89;84.32
23170;BME280;11753;43.144;24.714;2023-04-03T01:57:52;98971.88;;;7.88;84.70
23170;BME280;11753;43.144;24.714;2023-04-03T01:58:53;98976.13;;;7.89;84.73
23170;BME280;11753;43.144;24.714;2023-04-03T01:59:54;98971.63;;;7.99;84.34
23170;BME280;11753;43.144;24.714;2023-04-03T02:00:55;98981.13;;;8.00;84.16
23170;BME280;11753;43.144;24.714;2023-04-03T02:01:56;98979.56;;;7.89;84.48
23170;BME280;11753;43.144;24.714;2023-04-03T02:02:57;98978.44;;;7.92;84.39
23170;BME280;11753;43.144;24.714;2023-04-03T02:03:58;98980.09;;;7.93;84.34
23170;BME280;11753;43.144;24.714;2023-04-03T02:04:59;98985.66;;;7.90;84.46
23170;BME280;11753;43.144;24.714;2023-04-03T02:06:00;98985.41;;;7.83;84.53
23170;BME280;11753;43.144;24.714;2023-04-03T02:07:01;98983.03;;;7.90;84.33
23170;BME280;11753;43.144;24.714;2023-04-03T02:08:01;98977.13;;;7.88;84.43
23170;BME280;11753;43.144;24.714;2023-04-03T02:09:04;98980.78;;;7.95;84.22
23170;BME280;11753;43.144;24.714;2023-04-03T02:10:05;98987.94;;;7.93;84.06
23170;BME280;11753;43.144;24.714;2023-04-03T02:11:06;98984.00;;;7.89;84.02
23170;BME280;11753;43.144;24.714;2023-04-03T02:12:07;98986.25;;;7.84;84.27
23170;BME280;11753;43.144;24.714;2023-04-03T02:13:07;98984.28;;;7.86;84.38
23170;BME280;11753;43.144;24.714;2023-04-03T02:14:08;98983.28;;;7.79;84.31
23170;BME280;11753;43.144;24.714;2023-04-03T02:15:09;98986.25;;;7.84;84.52
23170;BME280;11753;43.144;24.714;2023-04-03T02:16:11;98980.03;;;7.85;84.32
23170;BME280;11753;43.144;24.714;2023-04-03T02:17:13;98993.50;;;7.90;83.85
23170;BME280;11753;43.144;24.714;2023-04-03T02:18:14;98987.06;;;7.84;84.21
23170;BME280;11753;43.144;24.714;2023-04-03T02:19:16;98986.25;;;7.84;83.95
23170;BME280;11753;43.144;24.714;2023-04-03T02:20:17;98983.28;;;7.79;84.49
23170;BME280;11753;43.144;24.714;2023-04-03T02:21:18;98987.38;;;7.81;84.53
23170;BME280;11753;43.144;24.714;2023-04-03T02:22:19;98980.78;;;7.77;84.44
23170;BME280;11753;43.144;24.714;2023-04-03T02:23:20;98979.28;;;7.75;84.64
23170;BME280;11753;43.144;24.714;2023-04-03T02:24:21;98984.47;;;7.66;85.24
23170;BME280;11753;43.144;24.714;2023-04-03T02:25:22;98988.56;;;7.69;85.05
23170;BME280;11753;43.144;24.714;2023-04-03T02:26:23;98989.09;;;7.72;85.05
23170;BME280;11753;43.144;24.714;2023-04-03T02:27:24;98978.69;;;7.63;85.07
23170;BME280;11753;43.144;24.714;2023-04-03T02:28:24;98976.22;;;7.61;85.39
23170;BME280;11753;43.144;24.714;2023-04-03T02:29:25;98977.78;;;7.54;85.79
23170;BME280;11753;43.144;24.714;2023-04-03T02:30:26;98976.31;;;7.52;85.98
23170;BME280;11753;43.144;24.714;2023-04-03T02:31:27;98979.50;;;7.63;85.42
23170;BME280;11753;43.144;24.714;2023-04-03T02:32:28;98972.34;;;7.65;85.35
23170;BME280;11753;43.144;24.714;2023-04-03T02:33:30;98971.88;;;7.52;86.17
23170;BME280;11753;43.144;24.714;2023-04-03T02:34:31;98984.59;;;7.47;86.49
23170;BME280;11753;43.144;24.714;2023-04-03T02:35:32;98976.66;;;7.39;86.92
23170;BME280;11753;43.144;24.714;2023-04-03T02:36:32;98972.69;;;7.35;87.18
23170;BME280;11753;43.144;24.714;2023-04-03T02:37:34;98973.06;;;7.40;87.28
23170;BME280;11753;43.144;24.714;2023-04-03T02:38:35;98979.44;;;7.37;87.28
23170;BME280;11753;43.144;24.714;2023-04-03T02:39:36;98978.16;;;7.41;87.11
23170;BME280;11753;43.144;24.714;2023-04-03T02:40:37;98971.13;;;7.42;87.14
23170;BME280;11753;43.144;24.714;2023-04-03T02:41:38;98979.94;;;7.41;87.31
23170;BME280;11753;43.144;24.714;2023-04-03T02:42:39;98982.81;;;7.30;86.90
23170;BME280;11753;43.144;24.714;2023-04-03T02:43:40;98986.59;;;7.35;86.97
23170;BME280;11753;43.144;24.714;2023-04-03T02:44:41;98985.34;;;7.39;86.83
23170;BME280;11753;43.144;24.714;2023-04-03T02:45:41;98989.69;;;7.31;86.91
23170;BME280;11753;43.144;24.714;2023-04-03T02:46:42;98993.28;;;7.30;86.98
23170;BME280;11753;43.144;24.714;2023-04-03T02:47:43;98990.66;;;7.30;87.16
23170;BME280;11753;43.144;24.714;2023-04-03T02:48:44;98996.88;;;7.29;87.17
23170;BME280;11753;43.144;24.714;2023-04-03T02:49:45;99001.25;;;7.28;87.34
23170;BME280;11753;43.144;24.714;2023-04-03T02:50:46;98986.66;;;7.26;87.37
23170;BME280;11753;43.144;24.714;2023-04-03T02:51:47;98992.06;;;7.24;87.36
23170;BME280;11753;43.144;24.714;2023-04-03T02:52:48;98992.78;;;7.16;87.79
23170;BME280;11753;43.144;24.714;2023-04-03T02:53:49;98983.66;;;7.21;87.91
23170;BME280;11753;43.144;24.714;2023-04-03T02:54:51;98991.81;;;7.17;87.91
23170;BME280;11753;43.144;24.714;2023-04-03T02:55:52;98995.84;;;7.12;88.33
23170;BME280;11753;43.144;24.714;2023-04-03T02:56:52;98992.41;;;7.11;88.39
23170;BME280;11753;43.144;24.714;2023-04-03T02:57:53;98989.78;;;7.11;88.42
23170;BME280;11753;43.144;24.714;2023-04-03T02:58:54;98988.91;;;7.21;88.36
23170;BME280;11753;43.144;24.714;2023-04-03T02:59:55;98996.97;;;7.09;88.63
23170;BME280;11753;43.144;24.714;2023-04-03T03:00:55;98996.06;;;7.01;89.41
23170;BME280;11753;43.144;24.714;2023-04-03T03:01:56;98988.88;;;7.03;89.24
23170;BME280;11753;43.144;24.714;2023-04-03T03:02:57;98993.69;;;7.07;89.20
23170;BME280;11753;43.144;24.714;2023-04-03T03:03:59;98994.75;;;7.14;89.05
23170;BME280;11753;43.144;24.714;2023-04-03T03:05:03;98988.66;;;7.14;88.95
23170;BME280;11753;43.144;24.714;2023-04-03T03:07:06;98990.84;;;7.18;88.68
23170;BME280;11753;43.144;24.714;2023-04-03T03:08:07;98985.91;;;7.15;88.74
23170;BME280;11753;43.144;24.714;2023-04-03T03:09:08;98986.59;;;7.17;88.91
23170;BME280;11753;43.144;24.714;2023-04-03T03:10:09;98986.41;;;7.29;88.18
23170;BME280;11753;43.144;24.714;2023-04-03T03:11:10;98979.13;;;7.23;88.47
23170;BME280;11753;43.144;24.714;2023-04-03T03:12:11;98983.97;;;7.17;88.91
23170;BME280;11753;43.144;24.714;2023-04-03T03:13:12;98975.81;;;7.21;88.54
23170;BME280;11753;43.144;24.714;2023-04-03T03:14:13;98976.19;;;7.26;88.40
23170;BME280;11753;43.144;24.714;2023-04-03T03:15:14;98983.38;;;7.24;88.39
23170;BME280;11753;43.144;24.714;2023-04-03T03:16:16;98987.56;;;7.16;88.83
23170;BME280;11753;43.144;24.714;2023-04-03T03:17:17;98977.91;;;7.17;88.70
23170;BME280;11753;43.144;24.714;2023-04-03T03:18:18;98969.91;;;7.18;88.88
23170;BME280;11753;43.144;24.714;2023-04-03T03:19:19;98977.75;;;7.18;88.78
23170;BME280;11753;43.144;24.714;2023-04-03T03:20:20;98977.09;;;7.16;88.75
23170;BME280;11753;43.144;24.714;2023-04-03T03:21:21;98980.78;;;7.24;88.39
23170;BME280;11753;43.144;24.714;2023-04-03T03:22:22;98981.03;;;7.21;88.23
23170;BME280;11753;43.144;24.714;2023-04-03T03:23:24;98977.75;;;7.18;88.37
23170;BME280;11753;43.144;24.714;2023-04-03T03:24:26;98980.38;;;7.18;88.42
23170;BME280;11753;43.144;24.714;2023-04-03T03:25:26;98978.16;;;7.24;88.39
23170;BME280;11753;43.144;24.714;2023-04-03T03:26:27;98978.72;;;7.17;88.54
23170;BME280;11753;43.144;24.714;2023-04-03T03:27:28;98970.53;;;7.30;88.25
23170;BME280;11753;43.144;24.714;2023-04-03T03:28:29;98974.16;;;7.20;88.05
23170;BME280;11753;43.144;24.714;2023-04-03T03:29:30;98983.31;;;7.15;88.11
23170;BME280;11753;43.144;24.714;2023-04-03T03:30:31;98971.03;;;7.16;88.27
23170;BME280;11753;43.144;24.714;2023-04-03T03:31:32;98976.53;;;7.13;88.07
23170;BME280;11753;43.144;24.714;2023-04-03T03:32:33;98976.84;;;7.10;88.32
23170;BME280;11753;43.144;24.714;2023-04-03T03:33:34;98968.59;;;7.05;88.98
23170;BME280;11753;43.144;24.714;2023-04-03T03:34:35;98968.84;;;7.11;88.79
23170;BME280;11753;43.144;24.714;2023-04-03T03:35:36;98970.50;;;7.12;88.40
23170;BME280;11753;43.144;24.714;2023-04-03T03:36:37;98968.03;;;7.11;88.73
23170;BME280;11753;43.144;24.714;2023-04-03T03:37:38;98966.84;;;7.23;88.09
23170;BME280;11753;43.144;24.714;2023-04-03T03:38:39;98971.03;;;7.16;88.24
23170;BME280;11753;43.144;24.714;2023-04-03T03:39:40;98965.16;;;7.04;88.64
23170;BME280;11753;43.144;24.714;2023-04-03T03:40:41;98974.81;;;7.04;89.50
23170;BME280;11753;43.144;24.714;2023-04-03T03:41:41;98964.50;;;7.02;89.13
23170;BME280;11753;43.144;24.714;2023-04-03T03:42:42;98963.44;;;6.95;89.63
23170;BME280;11753;43.144;24.714;2023-04-03T03:43:43;98973.84;;;7.05;89.42
23170;BME280;11753;43.144;24.714;2023-04-03T03:44:43;98968.34;;;7.08;89.34
23170;BME280;11753;43.144;24.714;2023-04-03T03:45:44;98973.09;;;7.12;89.06
23170;BME280;11753;43.144;24.714;2023-04-03T03:46:47;98974.09;;;7.11;88.95
23170;BME280;11753;43.144;24.714;2023-04-03T03:47:48;98971.63;;;7.10;88.71
23170;BME280;11753;43.144;24.714;2023-04-03T03:48:51;98971.47;;;7.11;88.57
23170;BME280;11753;43.144;24.714;2023-04-03T03:49:52;98976.31;;;7.06;88.51
23170;BME280;11753;43.144;24.714;2023-04-03T03:50:53;98970.94;;;7.08;88.46
23170;BME280;11753;43.144;24.714;2023-04-03T03:51:54;98968.84;;;7.11;88.31
23170;BME280;11753;43.144;24.714;2023-04-03T03:52:55;98972.03;;;7.05;88.31
23170;BME280;11753;43.144;24.714;2023-04-03T03:53:56;98962.56;;;7.04;88.58
23170;BME280;11753;43.144;24.714;2023-04-03T03:54:57;98971.69;;;7.00;88.41
23170;BME280;11753;43.144;24.714;2023-04-03T03:55:58;98962.97;;;7.00;88.79
23170;BME280;11753;43.144;24.714;2023-04-03T03:56:59;98963.69;;;7.02;88.76
23170;BME280;11753;43.144;24.714;2023-04-03T03:58:00;98968.09;;;7.01;88.85
23170;BME280;11753;43.144;24.714;2023-04-03T03:59:02;98971.88;;;7.07;88.34
23170;BME280;11753;43.144;24.714;2023-04-03T04:00:03;98968.38;;;6.98;88.71
23170;BME280;11753;43.144;24.714;2023-04-03T04:01:05;98970.72;;;7.01;88.48
23170;BME280;11753;43.144;24.714;2023-04-03T04:02:07;98967.78;;;7.04;88.28
23170;BME280;11753;43.144;24.714;2023-04-03T04:03:08;98973.16;;;7.03;88.29
23170;BME280;11753;43.144;24.714;2023-04-03T04:04:09;98970.41;;;7.04;87.83
23170;BME280;11753;43.144;24.714;2023-04-03T04:05:10;98964.78;;;6.99;88.23
23170;BME280;11753;43.144;24.714;2023-04-03T04:06:11;98970.00;;;6.99;88.93
23170;BME280;11753;43.144;24.714;2023-04-03T04:07:12;98968.94;;;6.92;88.84
23170;BME280;11753;43.144;24.714;2023-04-03T04:08:13;98972.53;;;6.91;88.92
23170;BME280;11753;43.144;24.714;2023-04-03T04:09:14;98965.97;;;6.87;89.01
23170;BME280;11753;43.144;24.714;2023-04-03T04:10:15;98960.44;;;6.90;89.18
23170;BME280;11753;43.144;24.714;2023-04-03T04:11:16;98960.44;;;6.90;89.13
23170;BME280;11753;43.144;24.714;2023-04-03T04:12:17;98964.53;;;6.93;89.03
23170;BME280;11753;43.144;24.714;2023-04-03T04:13:18;98966.22;;;6.84;89.41
23170;BME280;11753;43.144;24.714;2023-04-03T04:14:19;98969.16;;;6.81;89.66
23170;BME280;11753;43.144;24.714;2023-04-03T04:15:21;98964.31;;;6.86;89.66
23170;BME280;11753;43.144;24.714;2023-04-03T04:16:22;98960.03;;;6.85;89.52
23170;BME280;11753;43.144;24.714;2023-04-03T04:17:22;98971.19;;;6.87;89.68
23170;BME280;11753;43.144;24.714;2023-04-03T04:18:24;98969.56;;;6.86;89.85
23170;BME280;11753;43.144;24.714;2023-04-03T04:19:25;98971.56;;;6.92;89.27
23170;BME280;11753;43.144;24.714;2023-04-03T04:20:26;98963.78;;;6.82;89.64
23170;BME280;11753;43.144;24.714;2023-04-03T04:21:27;98966.22;;;6.84;89.65
23170;BME280;11753;43.144;24.714;2023-04-03T04:22:28;98965.00;;;6.88;89.66
23170;BME280;11753;43.144;24.714;2023-04-03T04:23:30;98973.91;;;6.95;89.43
23170;BME280;11753;43.144;24.714;2023-04-03T04:24:30;98965.13;;;6.86;89.57
23170;BME280;11753;43.144;24.714;2023-04-03T04:25:31;98966.38;;;6.82;89.73
23170;BME280;11753;43.144;24.714;2023-04-03T04:26:33;98974.38;;;6.81;90.01
23170;BME280;11753;43.144;24.714;2023-04-03T04:27:34;98968.13;;;6.92;89.62
23170;BME280;11753;43.144;24.714;2023-04-03T04:28:35;98975.09;;;6.73;90.41
23170;BME280;11753;43.144;24.714;2023-04-03T04:29:36;98980.34;;;6.63;91.23
23170;BME280;11753;43.144;24.714;2023-04-03T04:30:38;98980.34;;;6.73;91.06
23170;BME280;11753;43.144;24.714;2023-04-03T04:31:39;98978.09;;;6.78;90.97
23170;BME280;11753;43.144;24.714;2023-04-03T04:32:40;98978.78;;;6.80;91.12
23170;BME280;11753;43.144;24.714;2023-04-03T04:33:41;98981.41;;;6.80;91.17
23170;BME280;11753;43.144;24.714;2023-04-03T04:34:42;98981.09;;;6.83;91.28
23170;BME280;11753;43.144;24.714;2023-04-03T04:35:43;98980.28;;;6.83;90.82
23170;BME280;11753;43.144;24.714;2023-04-03T04:36:44;98979.16;;;6.85;90.59
23170;BME280;11753;43.144;24.714;2023-04-03T04:37:44;98991.81;;;6.90;90.37
23170;BME280;11753;43.144;24.714;2023-04-03T04:38:46;98981.09;;;6.93;90.47
23170;BME280;11753;43.144;24.714;2023-04-03T04:39:47;98990.94;;;6.99;90.40
23170;BME280;11753;43.144;24.714;2023-04-03T04:40:48;98991.50;;;7.03;89.85
23170;BME280;11753;43.144;24.714;2023-04-03T04:41:49;98995.59;;;7.05;89.80
23170;BME280;11753;43.144;24.714;2023-04-03T04:42:50;98991.00;;;7.17;89.35
23170;BME280;11753;43.144;24.714;2023-04-03T04:43:51;98989.19;;;7.17;89.25
23170;BME280;11753;43.144;24.714;2023-04-03T04:44:52;98995.50;;;7.25;88.97
23170;BME280;11753;43.144;24.714;2023-04-03T04:46:04;98988.84;;;7.30;88.37
23170;BME280;11753;43.144;24.714;2023-04-03T04:47:07;98994.91;;;7.31;87.93
23170;BME280;11753;43.144;24.714;2023-04-03T04:48:08;98996.25;;;7.35;87.77
23170;BME280;11753;43.144;24.714;2023-04-03T04:49:09;98990.72;;;7.38;87.62
23170;BME280;11753;43.144;24.714;2023-04-03T04:50:10;98982.81;;;7.48;87.32
23170;BME280;11753;43.144;24.714;2023-04-03T04:51:12;98991.19;;;7.51;86.88
23170;BME280;11753;43.144;24.714;2023-04-03T04:52:13;99003.09;;;7.45;86.75
23170;BME280;11753;43.144;24.714;2023-04-03T04:53:14;99008.56;;;7.52;86.63
23170;BME280;11753;43.144;24.714;2023-04-03T04:54:15;99013.00;;;7.42;86.99
23170;BME280;11753;43.144;24.714;2023-04-03T04:55:16;99017.97;;;7.45;87.07
23170;BME280;11753;43.144;24.714;2023-04-03T04:56:17;99019.31;;;7.49;86.67
23170;BME280;11753;43.144;24.714;2023-04-03T04:57:18;99010.50;;;7.50;86.87
23170;BME280;11753;43.144;24.714;2023-04-03T04:58:19;99003.16;;;7.54;86.76
23170;BME280;11753;43.144;24.714;2023-04-03T04:59:20;99012.91;;;7.61;86.42
23170;BME280;11753;43.144;24.714;2023-04-03T05:00:21;99011.31;;;7.68;86.19
23170;BME280;11753;43.144;24.714;2023-04-03T05:01:22;99006.25;;;7.67;85.49
23170;BME280;11753;43.144;24.714;2023-04-03T05:02:23;99016.88;;;7.65;85.46
23170;BME280;11753;43.144;24.714;2023-04-03T05:03:24;99019.63;;;7.64;84.94
23170;BME280;11753;43.144;24.714;2023-04-03T05:04:25;99023.69;;;7.58;84.91
23170;BME280;11753;43.144;24.714;2023-04-03T05:05:26;99020.38;;;7.56;85.62
23170;BME280;11753;43.144;24.714;2023-04-03T05:06:27;99014.19;;;7.57;85.74
23170;BME280;11753;43.144;24.714;2023-04-03T05:07:28;99026.16;;;7.60;85.72
23170;BME280;11753;43.144;24.714;2023-04-03T05:08:29;99025.09;;;7.53;86.04
23170;BME280;11753;43.144;24.714;2023-04-03T05:09:31;99016.88;;;7.65;85.68
23170;BME280;11753;43.144;24.714;2023-04-03T05:10:32;99015.75;;;7.68;85.45
23170;BME280;11753;43.144;24.714;2023-04-03T05:11:33;99017.84;;;7.64;85.52
23170;BME280;11753;43.144;24.714;2023-04-03T05:12:33;99024.50;;;7.77;85.12
23170;BME280;11753;43.144;24.714;2023-04-03T05:13:34;99025.19;;;7.79;84.86
23170;BME280;11753;43.144;24.714;2023-04-03T05:14:35;99028.16;;;7.84;84.64
23170;BME280;11753;43.144;24.714;2023-04-03T05:15:36;99033.13;;;7.87;84.47
23170;BME280;11753;43.144;24.714;2023-04-03T05:16:37;99036.09;;;7.92;84.27
23170;BME280;11753;43.144;24.714;2023-04-03T05:17:38;99035.44;;;7.90;83.71
23170;BME280;11753;43.144;24.714;2023-04-03T05:18:39;99029.22;;;7.91;83.94
23170;BME280;11753;43.144;24.714;2023-04-03T05:19:40;99032.88;;;7.98;83.28
23170;BME280;11753;43.144;24.714;2023-04-03T05:20:41;99032.66;;;7.91;83.72
23170;BME280;11753;43.144;24.714;2023-04-03T05:21:43;99029.88;;;7.93;83.75
23170;BME280;11753;43.144;24.714;2023-04-03T05:22:44;99029.81;;;8.03;83.51
23170;BME280;11753;43.144;24.714;2023-04-03T05:23:45;99028.31;;;8.00;83.55
23170;BME280;11753;43.144;24.714;2023-04-03T05:24:46;99031.09;;;7.98;83.78
23170;BME280;11753;43.144;24.714;2023-04-03T05:25:47;99032.06;;;8.15;83.56
23170;BME280;11753;43.144;24.714;2023-04-03T05:26:49;99032.13;;;8.23;82.78
23170;BME280;11753;43.144;24.714;2023-04-03T05:27:50;99029.19;;;8.26;82.70
23170;BME280;11753;43.144;24.714;2023-04-03T05:28:50;99040.31;;;8.28;82.45
23170;BME280;11753;43.144;24.714;2023-04-03T05:29:52;99030.59;;;8.21;82.90
23170;BME280;11753;43.144;24.714;2023-04-03T05:30:55;99034.06;;;8.39;82.24
23170;BME280;11753;43.144;24.714;2023-04-03T05:31:56;99033.28;;;8.47;81.81